Time;durP1;ratioP1;P1;durP2;ratioP2;P2;SDS_P1;SDS_P2;PMS_P1;PMS_P2;Temp;Humidity;BMP_temperature;BMP_pressure;BME280_temperature;BME280_humidity;BME280_pressure;Samples;Min_cycle;Max_cycle;Signal;HPM_P1;HPM_P2
2021/05/03 00:01:57;;;;;;;3.15;1.70;;;;;;;17.55;52.03;102153.28;6241521;22;20015;-78
2021/05/03 00:04:22;;;;;;;2.35;1.60;;;;;;;17.57;52.02;102156.78;6270146;22;20008;-79
2021/05/03 00:06:48;;;;;;;4.20;1.80;;;;;;;17.56;51.52;102161.13;6246556;22;20090;-79
2021/05/03 00:09:14;;;;;;;3.58;1.83;;;;;;;17.54;51.74;102147.22;6298210;22;19995;-79
2021/05/03 00:11:39;;;;;;;3.03;1.60;;;;;;;17.55;51.84;102140.28;6297997;22;20065;-78
2021/05/03 00:14:04;;;;;;;3.03;1.63;;;;;;;17.51;51.77;102147.19;6382161;22;20014;-79
2021/05/03 00:16:30;;;;;;;3.45;1.67;;;;;;;17.50;51.96;102137.63;6354961;22;20023;-79
2021/05/03 00:18:55;;;;;;;3.53;1.60;;;;;;;17.56;52.09;102150.72;6361043;22;20038;-82
2021/05/03 00:21:21;;;;;;;2.15;1.38;;;;;;;17.53;51.78;102147.19;6308505;22;20003;-79
2021/05/03 00:23:47;;;;;;;2.92;1.60;;;;;;;17.53;51.95;102142.88;6384331;22;20082;-79
2021/05/03 00:26:13;;;;;;;2.35;1.38;;;;;;;17.56;51.70;102136.84;6372123;22;20010;-79
2021/05/03 00:28:39;;;;;;;2.05;1.42;;;;;;;17.53;51.85;102128.97;6360839;22;20005;-79
2021/05/03 00:31:05;;;;;;;2.35;1.60;;;;;;;17.49;51.65;102128.09;6356449;22;20410;-79
2021/05/03 00:33:30;;;;;;;1.80;1.27;;;;;;;17.50;51.78;102129.81;6354318;22;20059;-78
2021/05/03 00:35:56;;;;;;;2.80;1.77;;;;;;;17.48;51.84;102123.72;6327397;22;20054;-79
2021/05/03 00:38:21;;;;;;;2.13;1.45;;;;;;;17.50;51.91;102118.53;6276436;22;20442;-79
2021/05/03 00:40:46;;;;;;;1.80;1.40;;;;;;;17.53;51.50;102119.47;6302401;22;20003;-78
2021/05/03 00:43:18;;;;;;;1.77;1.40;;;;;;;17.54;51.88;102123.78;6330036;22;19999;-79
2021/05/03 00:45:43;;;;;;;2.33;1.70;;;;;;;17.50;51.87;102115.94;6329200;22;20003;-79
2021/05/03 00:48:09;;;;;;;3.58;1.80;;;;;;;17.48;52.33;102116.81;6303888;22;20018;-78
2021/05/03 00:50:35;;;;;;;2.20;1.63;;;;;;;17.48;52.03;102116.81;6330749;22;20007;-79
2021/05/03 00:53:00;;;;;;;4.22;1.60;;;;;;;17.49;52.11;102112.47;6330340;22;20000;-79
2021/05/03 00:55:27;;;;;;;2.35;1.50;;;;;;;17.48;51.37;102111.59;6304320;22;20051;-80
2021/05/03 00:57:53;;;;;;;2.65;1.60;;;;;;;17.48;51.69;102110.72;6331636;22;20003;-79
2021/05/03 01:00:19;;;;;;;2.80;1.60;;;;;;;17.48;51.74;102113.31;6331209;22;20029;-78
2021/05/03 01:02:44;;;;;;;1.88;1.55;;;;;;;17.47;51.79;102115.03;6304297;22;19999;-79
2021/05/03 01:05:10;;;;;;;2.72;1.80;;;;;;;17.48;51.77;102118.50;6332802;22;20007;-79
2021/05/03 01:07:36;;;;;;;3.25;1.73;;;;;;;17.44;51.91;102107.22;6332643;22;19996;-78
2021/05/03 01:13:31;;;;;;;2.83;2.00;;;;;;;17.45;51.71;102103.75;6333327;22;20019;-80
2021/05/03 01:28:52;;;;;;;2.65;2.10;;;;;;;17.46;51.80;102089.00;6311103;22;20033;-79
2021/05/03 01:31:18;;;;;;;2.83;2.45;;;;;;;17.45;51.71;102087.25;6335976;22;20010;-79
2021/05/03 01:33:43;;;;;;;2.55;2.28;;;;;;;17.44;51.68;102093.31;6334588;22;20392;-79
2021/05/03 01:36:09;;;;;;;2.75;2.30;;;;;;;17.43;51.54;102083.78;6308101;22;20045;-79
2021/05/03 01:38:34;;;;;;;3.42;2.40;;;;;;;17.42;51.79;102077.69;6307965;22;20062;-79
2021/05/03 01:41:00;;;;;;;2.67;2.15;;;;;;;17.45;51.63;102090.72;6305840;22;20329;-76
2021/05/03 01:43:27;;;;;;;3.95;2.50;;;;;;;17.43;51.20;102083.78;6363740;22;20021;-79
2021/05/03 01:45:57;;;;;;;3.38;2.45;;;;;;;17.41;51.59;102083.75;6343071;22;20030;-79
2021/05/03 01:48:26;;;;;;;2.80;2.35;;;;;;;17.41;51.51;102088.09;6355286;22;20023;-79
2021/05/03 01:50:53;;;;;;;3.70;2.40;;;;;;;17.45;51.76;102082.06;6328873;22;19995;-78
2021/05/03 01:53:19;;;;;;;3.50;2.55;;;;;;;17.45;51.83;102082.06;6302379;22;20012;-79
2021/05/03 01:55:47;;;;;;;3.13;2.42;;;;;;;17.42;51.42;102072.50;6302733;22;20011;-79
2021/05/03 01:58:13;;;;;;;4.50;2.60;;;;;;;17.44;51.61;102077.69;6330030;22;20013;-79
2021/05/03 02:00:39;;;;;;;3.53;2.13;;;;;;;17.42;51.55;102082.91;6330709;22;20060;-79
2021/05/03 02:03:04;;;;;;;2.85;2.53;;;;;;;17.41;51.69;102075.06;6336373;22;20014;-79
2021/05/03 02:05:30;;;;;;;2.40;2.20;;;;;;;17.42;51.63;102074.19;6328805;22;20051;-79
2021/05/03 02:08:03;;;;;;;2.30;2.10;;;;;;;17.40;51.70;102073.34;6327374;22;20003;-79
2021/05/03 02:10:30;;;;;;;3.72;2.67;;;;;;;17.39;51.49;102061.16;6326555;22;20037;-79
2021/05/03 02:12:57;;;;;;;2.50;2.30;;;;;;;17.42;51.86;102067.28;6351166;22;20018;-77
2021/05/03 02:15:23;;;;;;;4.28;2.33;;;;;;;17.43;52.04;102066.41;6334395;22;20018;-80
2021/05/03 02:17:49;;;;;;;2.92;2.17;;;;;;;17.44;51.72;102064.69;6360083;22;20368;-79
2021/05/03 02:20:16;;;;;;;2.40;1.85;;;;;;;17.39;51.76;102059.44;6357558;22;20011;-79
2021/05/03 02:22:43;;;;;;;2.50;1.95;;;;;;;17.40;51.76;102052.53;6376244;22;20057;-79
2021/05/03 02:25:09;;;;;;;3.08;2.10;;;;;;;17.41;51.69;102065.53;6392713;22;20002;-79
2021/05/03 02:27:34;;;;;;;3.50;2.33;;;;;;;17.39;51.41;102051.63;6365347;22;20017;-79
2021/05/03 02:30:00;;;;;;;3.30;2.50;;;;;;;17.42;51.54;102063.78;6365926;22;20002;-79
2021/05/03 02:32:25;;;;;;;2.63;2.10;;;;;;;17.41;51.80;102062.94;6392638;22;20079;-79
2021/05/03 02:34:51;;;;;;;4.03;2.25;;;;;;;17.43;51.67;102057.75;6329824;22;20030;-77
2021/05/03 02:37:16;;;;;;;4.63;2.30;;;;;;;17.42;51.50;102061.19;6302441;22;20344;-77
2021/05/03 02:39:42;;;;;;;3.20;2.00;;;;;;;17.43;51.82;102057.75;6327590;22;20015;-76
2021/05/03 02:42:11;;;;;;;3.17;2.25;;;;;;;17.42;51.65;102048.19;6306254;22;20010;-77
2021/05/03 02:44:39;;;;;;;2.80;2.33;;;;;;;17.40;51.73;102050.78;6333785;22;20260;-77
2021/05/03 02:47:08;;;;;;;2.30;2.10;;;;;;;17.39;51.57;102038.63;6333113;22;20014;-77
2021/05/03 02:49:35;;;;;;;3.47;2.30;;;;;;;17.38;51.82;102039.50;6335938;22;20046;-77
2021/05/03 02:52:01;;;;;;;2.55;2.30;;;;;;;17.40;51.73;102034.31;6334725;22;19999;-78
2021/05/03 02:54:26;;;;;;;2.90;2.28;;;;;;;17.39;51.60;102036.00;6334737;22;20007;-77
2021/05/03 02:56:52;;;;;;;3.65;2.47;;;;;;;17.40;51.49;102031.72;6357386;22;20023;-78
2021/05/03 02:59:17;;;;;;;2.65;2.20;;;;;;;17.40;52.02;102032.56;6363200;22;19994;-79
2021/05/03 03:01:43;;;;;;;3.63;2.47;;;;;;;17.40;51.94;102027.38;6363622;22;20010;-77
2021/05/03 03:04:08;;;;;;;4.05;2.38;;;;;;;17.42;51.74;102025.66;6363032;22;20013;-78
2021/05/03 03:06:33;;;;;;;3.10;2.60;;;;;;;17.42;51.68;102029.97;6363072;22;20007;-78
2021/05/03 03:08:59;;;;;;;3.60;2.40;;;;;;;17.41;51.88;102023.03;6337207;22;20003;-77
2021/05/03 03:11:24;;;;;;;3.92;2.50;;;;;;;17.42;51.90;102019.56;6388438;22;19998;-77
2021/05/03 03:16:22;;;;;;;3.25;2.47;;;;;;;17.41;52.10;102017.81;6342317;22;879322;-78
2021/05/03 03:18:48;;;;;;;2.53;2.22;;;;;;;17.42;51.83;102023.06;6356715;22;20019;-77
2021/05/03 03:21:13;;;;;;;4.55;2.70;;;;;;;17.45;52.22;102027.41;6356799;22;20030;-78
2021/05/03 03:23:39;;;;;;;3.00;2.67;;;;;;;17.43;52.34;102026.53;6386627;22;20022;-77
2021/05/03 03:26:05;;;;;;;3.78;2.70;;;;;;;17.46;52.54;102023.94;6365462;22;20066;-78
2021/05/03 03:28:30;;;;;;;3.55;2.78;;;;;;;17.45;52.49;102030.00;6388867;22;20005;-78
2021/05/03 03:30:55;;;;;;;4.05;2.72;;;;;;;17.44;51.99;102023.03;6389382;22;20010;-78
2021/05/03 03:33:21;;;;;;;4.22;3.00;;;;;;;17.42;52.47;102020.44;6364242;22;20048;-77
2021/05/03 03:35:46;;;;;;;3.92;3.05;;;;;;;17.46;52.23;102035.25;6344134;22;19999;-78
2021/05/03 03:38:11;;;;;;;3.75;2.85;;;;;;;17.45;52.73;102022.22;6368351;22;20066;-78
2021/05/03 03:40:37;;;;;;;4.40;3.40;;;;;;;17.44;52.61;102016.13;6343153;22;20004;-78
2021/05/03 03:43:02;;;;;;;4.07;2.90;;;;;;;17.43;52.14;102008.31;6344101;22;20006;-78
2021/05/03 03:45:28;;;;;;;4.95;3.33;;;;;;;17.43;52.20;102013.50;6342765;22;20486;-78
2021/05/03 03:47:53;;;;;;;3.83;2.78;;;;;;;17.47;52.51;102008.34;6308041;22;20019;-77
2021/05/03 03:50:18;;;;;;;4.65;3.15;;;;;;;17.48;52.56;102007.50;6313542;22;19994;-77
2021/05/03 03:52:44;;;;;;;5.72;3.53;;;;;;;17.46;52.41;101996.22;6305560;22;20023;-78
2021/05/03 03:55:10;;;;;;;4.57;3.25;;;;;;;17.49;52.34;101995.34;6339480;22;20054;-77
2021/05/03 03:57:35;;;;;;;3.40;2.78;;;;;;;17.51;52.39;101998.84;6339778;22;20056;-78
2021/05/03 04:03:24;;;;;;;4.28;3.50;;;;;;;17.47;52.25;101991.88;6360624;22;20029;-78
2021/05/03 04:08:46;;;;;;;4.45;3.60;;;;;;;17.47;52.65;101982.31;6396313;22;20006;-80
2021/05/03 04:22:40;;;;;;;4.70;3.83;;;;;;;17.49;52.39;101990.16;6395924;22;19989;-80
2021/05/03 04:27:39;;;;;;;4.15;3.70;;;;;;;17.51;52.57;101996.25;6397483;22;20014;-80
2021/05/03 04:30:11;;;;;;;5.18;3.97;;;;;;;17.51;52.55;101991.03;6398768;22;19997;-78
2021/05/03 04:32:37;;;;;;;4.57;4.18;;;;;;;17.52;52.72;101989.31;6397054;22;19994;-80
2021/05/03 04:37:38;;;;;;;4.47;3.78;;;;;;;17.51;51.99;101985.84;6380251;22;20078;-77
2021/05/03 04:40:04;;;;;;;5.60;4.25;;;;;;;17.52;52.47;101987.56;6343679;22;20016;-78
2021/05/03 04:42:29;;;;;;;5.10;4.40;;;;;;;17.53;52.55;101988.44;6343342;22;20006;-79
2021/05/03 04:45:02;;;;;;;4.95;4.00;;;;;;;17.52;52.62;101982.38;6340737;22;20021;-79
2021/05/03 04:47:27;;;;;;;5.63;4.40;;;;;;;17.51;52.61;101978.03;6394471;22;19982;-79
2021/05/03 04:49:54;;;;;;;5.13;4.30;;;;;;;17.52;52.41;101978.91;6367647;22;20003;-80
2021/05/03 04:52:20;;;;;;;4.53;4.03;;;;;;;17.51;52.47;101974.53;6392776;22;20018;-79
2021/05/03 04:54:46;;;;;;;5.00;4.47;;;;;;;17.52;52.22;101973.69;6364978;22;20018;-79
2021/05/03 04:57:12;;;;;;;5.93;4.50;;;;;;;17.52;52.40;101971.94;6366019;22;20009;-80
2021/05/03 04:59:38;;;;;;;4.85;3.92;;;;;;;17.52;52.41;101971.09;6365898;22;20003;-79
2021/05/03 05:02:03;;;;;;;4.95;4.32;;;;;;;17.56;52.46;101975.47;6367159;22;20031;-86
2021/05/03 05:04:36;;;;;;;5.90;4.95;;;;;;;17.53;52.71;101978.03;6364863;22;20298;-79
2021/05/03 05:10:24;;;;;;;5.53;4.50;;;;;;;17.51;52.69;101982.34;6397282;22;20008;-80
2021/05/03 05:12:50;;;;;;;6.35;5.00;;;;;;;17.53;52.28;101999.75;6395015;22;20005;-80
2021/05/03 05:17:52;;;;;;;5.68;4.85;;;;;;;17.51;52.31;101991.03;6383980;22;20047;-78
2021/05/03 05:20:19;;;;;;;6.13;4.60;;;;;;;17.51;52.21;101992.75;6332276;22;20023;-79
2021/05/03 05:22:45;;;;;;;5.57;4.82;;;;;;;17.51;52.21;101991.03;6338705;22;20025;-80
2021/05/03 05:25:11;;;;;;;5.55;4.57;;;;;;;17.53;52.36;101991.94;6368302;22;19994;-79
2021/05/03 05:27:36;;;;;;;6.53;4.88;;;;;;;17.52;52.31;101997.97;6341429;22;20042;-79
2021/05/03 05:30:04;;;;;;;6.50;5.15;;;;;;;17.52;52.21;101992.78;6326314;22;20015;-77
2021/05/03 05:32:29;;;;;;;28.30;10.18;;;;;;;17.65;52.64;101994.63;6305920;22;20422;-80
2021/05/03 05:34:55;;;;;;;17.52;7.10;;;;;;;17.79;52.28;101993.84;6329707;22;20054;-79
2021/05/03 05:37:20;;;;;;;14.73;6.47;;;;;;;17.89;52.55;101990.50;6331882;22;20110;-82
2021/05/03 05:39:46;;;;;;;14.65;6.18;;;;;;;17.92;52.37;101989.66;6280743;22;20033;-82
2021/05/03 05:42:11;;;;;;;17.35;6.47;;;;;;;17.91;52.22;101994.00;6306712;22;20014;-80
2021/05/03 05:44:37;;;;;;;14.52;5.53;;;;;;;17.94;52.38;101982.72;6305306;22;20007;-79
2021/05/03 05:47:02;;;;;;;12.30;5.00;;;;;;;17.96;52.08;101988.81;6329567;22;20122;-81
2021/05/03 05:49:28;;;;;;;9.98;4.75;;;;;;;17.96;52.13;101986.22;6305747;22;20015;-79
2021/05/03 05:51:53;;;;;;;13.13;5.13;;;;;;;17.93;52.13;101981.88;6306291;22;20082;-79
2021/05/03 05:54:19;;;;;;;9.48;4.45;;;;;;;17.95;52.26;101985.34;6302825;22;20049;-81
2021/05/03 05:56:44;;;;;;;8.63;4.68;;;;;;;17.94;52.05;101983.59;6329187;22;20059;-78
2021/05/03 06:08:14;;;;;;;9.30;4.07;;;;;;;18.05;52.06;101973.25;6391091;22;20002;-81
2021/05/03 06:18:05;;;;;;;6.82;4.00;;;;;;;18.12;52.19;101972.44;6356530;22;20034;-80
2021/05/03 06:20:39;;;;;;;8.95;4.00;;;;;;;18.16;52.07;101971.59;6389204;22;20080;-80
2021/05/03 06:23:08;;;;;;;9.43;4.18;;;;;;;18.17;52.24;101972.47;6385798;22;20025;-82
2021/05/03 06:25:53;;;;;;;5.03;3.33;;;;;;;18.19;52.47;101978.56;6382348;22;20038;-79
2021/05/03 06:28:21;;;;;;;5.47;3.60;;;;;;;18.19;52.16;101976.81;6362744;22;20013;-79
2021/05/03 06:31:05;;;;;;;6.35;3.75;;;;;;;18.19;52.18;101982.03;6386890;22;20006;-79
2021/05/03 06:33:31;;;;;;;9.25;3.55;;;;;;;18.23;52.29;101981.19;6380501;22;19998;-79
2021/05/03 06:36:20;;;;;;;5.35;3.50;;;;;;;18.24;52.12;101982.06;6388054;22;20066;-79
2021/05/03 06:38:47;;;;;;;4.90;3.42;;;;;;;18.21;52.17;101980.31;6387414;22;20002;-79
2021/05/03 06:41:13;;;;;;;5.80;3.60;;;;;;;18.25;52.06;101984.69;6386406;22;20009;-79
2021/05/03 06:43:38;;;;;;;6.60;3.53;;;;;;;18.28;52.12;101981.22;6383081;22;20006;-80
2021/05/03 06:49:25;;;;;;;5.18;3.40;;;;;;;18.39;52.10;101969.13;6359690;22;20030;-80
2021/05/03 06:51:52;;;;;;;4.78;2.80;;;;;;;18.38;52.13;101966.50;6328136;22;20015;-80
2021/05/03 06:54:17;;;;;;;5.45;2.80;;;;;;;18.36;52.10;101960.44;6351640;22;20015;-81
2021/05/03 06:56:43;;;;;;;6.00;3.00;;;;;;;18.41;52.07;101971.72;6353850;22;20042;-81
2021/05/03 06:59:08;;;;;;;6.70;3.20;;;;;;;18.62;51.55;101973.59;6352234;22;20017;-89
2021/05/03 07:01:33;;;;;;;5.55;2.83;;;;;;;18.70;51.19;101974.47;6344118;22;20056;-88
2021/05/03 07:03:59;;;;;;;6.50;3.08;;;;;;;19.39;49.63;101960.75;6316839;22;20041;-91
2021/05/03 07:06:24;;;;;;;4.55;3.15;;;;;;;19.35;49.81;101969.44;6344396;22;20003;-88
2021/05/03 07:08:52;;;;;;;5.18;3.10;;;;;;;19.55;49.60;101959.88;6342574;22;20007;-82
2021/05/03 07:11:21;;;;;;;5.50;3.58;;;;;;;19.59;49.59;101965.97;6341458;22;20018;-84
2021/05/03 07:13:46;;;;;;;4.97;2.90;;;;;;;19.58;49.16;101972.94;6349920;22;19994;-91
2021/05/03 07:16:11;;;;;;;5.45;2.90;;;;;;;20.00;48.34;101959.88;6360373;22;20022;-90
2021/05/03 07:18:37;;;;;;;5.95;2.92;;;;;;;19.94;48.21;101964.22;6373607;22;20002;-82
2021/05/03 07:21:03;;;;;;;6.13;3.72;;;;;;;19.90;48.41;101959.91;6384471;22;20002;-90
2021/05/03 07:23:29;;;;;;;4.47;3.20;;;;;;;19.94;48.15;101951.16;6374388;22;20544;-90
2021/05/03 07:25:54;;;;;;;5.50;3.05;;;;;;;19.80;48.71;101947.72;6373101;22;20042;-90
2021/05/03 07:28:19;;;;;;;5.70;3.65;;;;;;;19.71;49.19;101952.97;6371952;22;20003;-88
2021/05/03 07:30:45;;;;;;;4.40;3.30;;;;;;;19.53;49.59;101956.38;6370720;22;20392;-90
2021/05/03 07:33:10;;;;;;;5.18;3.08;;;;;;;19.50;49.75;101959.00;6320236;22;20483;-89
2021/05/03 07:35:36;;;;;;;4.32;3.30;;;;;;;19.49;49.87;101959.91;6372230;22;20028;-89
2021/05/03 07:38:01;;;;;;;4.80;3.00;;;;;;;19.75;48.88;101949.47;6371806;22;20002;-87
2021/05/03 07:40:27;;;;;;;5.93;3.38;;;;;;;19.71;48.99;101952.97;6371395;22;20013;-87
2021/05/03 07:42:52;;;;;;;5.70;2.58;;;;;;;19.62;49.29;101958.13;6372370;22;19994;-89
2021/05/03 07:45:18;;;;;;;4.80;3.08;;;;;;;19.84;48.61;101951.22;6372004;22;20021;-86
2021/05/03 07:47:45;;;;;;;4.35;3.13;;;;;;;19.99;48.26;101948.56;6372062;22;20077;-88
2021/05/03 07:50:12;;;;;;;4.28;2.92;;;;;;;19.78;48.81;101951.22;6370205;22;20364;-85
2021/05/03 07:52:37;;;;;;;7.22;3.42;;;;;;;19.70;49.15;101945.97;6371152;22;20056;-81
2021/05/03 07:55:04;;;;;;;7.20;3.03;;;;;;;19.66;49.40;101952.03;6370674;22;20006;-81
2021/05/03 07:57:30;;;;;;;8.65;3.58;;;;;;;19.80;48.80;101950.34;6370422;22;20058;-81
2021/05/03 07:59:55;;;;;;;4.10;2.90;;;;;;;20.03;48.06;101952.88;6370831;22;20044;-79
2021/05/03 08:02:21;;;;;;;6.75;3.05;;;;;;;20.01;48.30;101936.38;6346727;22;20345;-80
2021/05/03 08:04:47;;;;;;;7.20;2.83;;;;;;;19.75;48.71;101938.13;6373008;22;20033;-79
2021/05/03 08:07:12;;;;;;;5.53;2.83;;;;;;;19.71;49.07;101942.50;6370117;22;20006;-79
2021/05/03 08:09:39;;;;;;;5.78;3.47;;;;;;;19.72;48.91;101949.47;6372173;22;20002;-84
2021/05/03 08:12:05;;;;;;;4.45;3.10;;;;;;;19.49;49.38;101936.41;6372929;22;20002;-86
2021/05/03 08:14:31;;;;;;;5.90;3.47;;;;;;;19.66;48.98;101933.75;6370942;22;20006;-87
2021/05/03 08:17:04;;;;;;;5.68;3.38;;;;;;;19.58;49.02;101936.41;6371904;22;20006;-85
2021/05/03 08:19:30;;;;;;;5.82;3.22;;;;;;;19.58;48.83;101925.09;6371263;22;20033;-84
2021/05/03 08:21:56;;;;;;;5.32;2.92;;;;;;;19.59;49.15;101929.41;6344260;22;20421;-85
2021/05/03 08:24:22;;;;;;;4.78;3.17;;;;;;;19.51;49.21;101932.91;6371594;22;20006;-84
2021/05/03 08:26:47;;;;;;;4.75;3.05;;;;;;;19.51;49.25;101940.75;6371074;22;20018;-87
2021/05/03 08:29:17;;;;;;;5.82;2.80;;;;;;;19.47;49.32;101935.53;6369462;22;20500;-86
2021/05/03 08:31:42;;;;;;;4.47;2.63;;;;;;;19.46;49.55;101939.84;6370680;22;20003;-86
2021/05/03 08:34:07;;;;;;;4.47;2.80;;;;;;;19.46;49.14;101939.00;6370370;22;20013;-84
2021/05/03 08:36:35;;;;;;;4.68;2.80;;;;;;;19.45;49.32;101940.75;6371369;22;20427;-86
2021/05/03 08:39:03;;;;;;;3.80;2.70;;;;;;;19.46;49.58;101933.78;6371432;22;20002;-87
2021/05/03 08:41:28;;;;;;;4.15;2.70;;;;;;;19.42;49.51;101945.06;6371075;22;20048;-87
2021/05/03 08:43:53;;;;;;;7.07;3.00;;;;;;;19.45;49.56;101934.66;6371177;22;19999;-84
2021/05/03 08:46:28;;;;;;;3.85;2.78;;;;;;;19.48;49.11;101947.69;6343612;22;20021;-87
2021/05/03 08:49:05;;;;;;;4.35;2.67;;;;;;;19.47;49.41;101944.22;6371084;22;20075;-87
2021/05/03 08:51:40;;;;;;;3.83;2.47;;;;;;;19.47;49.27;101938.13;6369173;22;20014;-86
2021/05/03 08:54:15;;;;;;;4.82;2.58;;;;;;;19.44;49.15;101938.97;6371043;22;20010;-87
2021/05/03 08:56:40;;;;;;;3.15;2.15;;;;;;;19.47;49.22;101930.31;6369886;22;20024;-87
2021/05/03 08:59:06;;;;;;;4.55;2.78;;;;;;;19.46;48.70;101925.94;6369931;22;19994;-88
2021/05/03 09:01:32;;;;;;;3.45;2.42;;;;;;;19.47;48.96;101927.69;6374043;22;19998;-87
2021/05/03 09:03:58;;;;;;;4.25;2.35;;;;;;;19.47;49.22;101925.09;6370435;22;20069;-85
2021/05/03 09:06:24;;;;;;;4.55;2.42;;;;;;;19.45;49.20;101930.31;6372038;22;19999;-87
2021/05/03 09:09:08;;;;;;;4.20;2.72;;;;;;;19.42;49.20;101927.66;6370180;22;19995;-86
2021/05/03 09:11:35;;;;;;;4.13;2.60;;;;;;;19.39;49.20;101925.06;6370083;22;20082;-82
2021/05/03 09:14:12;;;;;;;4.13;2.55;;;;;;;19.39;49.27;101935.50;6371284;22;20077;-86
2021/05/03 09:16:45;;;;;;;3.22;2.63;;;;;;;19.39;48.97;101932.91;6371512;22;20002;-84
2021/05/03 09:19:13;;;;;;;3.55;2.30;;;;;;;19.38;48.95;101918.13;6373371;22;20006;-88
2021/05/03 09:21:38;;;;;;;4.05;2.40;;;;;;;19.38;48.94;101919.84;6373607;22;20006;-89
2021/05/03 09:24:15;;;;;;;3.85;2.72;;;;;;;19.40;49.13;101918.09;6371768;22;20309;-82
2021/05/03 09:26:46;;;;;;;3.00;2.25;;;;;;;19.39;49.10;101932.03;6372653;22;20135;-87
2021/05/03 09:29:35;;;;;;;3.25;2.22;;;;;;;19.41;48.62;101925.09;6374741;22;20002;-86
2021/05/03 09:32:22;;;;;;;3.38;2.20;;;;;;;19.41;48.86;101920.72;6372377;22;20006;-85
2021/05/03 09:34:51;;;;;;;5.43;2.88;;;;;;;19.36;48.88;101918.97;6373555;22;20359;-83
2021/05/03 09:37:20;;;;;;;3.33;2.20;;;;;;;19.33;49.18;101928.53;6373240;22;20351;-84
2021/05/03 09:40:10;;;;;;;4.85;2.60;;;;;;;19.34;49.15;101924.22;6372987;22;20022;-82
2021/05/03 09:42:56;;;;;;;3.63;2.60;;;;;;;19.30;49.08;101901.59;6372021;22;20459;-85
2021/05/03 09:45:24;;;;;;;5.70;2.70;;;;;;;19.29;48.65;101912.88;6372184;22;20010;-85
2021/05/03 09:47:53;;;;;;;2.83;2.00;;;;;;;19.31;49.51;101896.38;6372400;22;20002;-83
2021/05/03 09:50:21;;;;;;;4.78;2.53;;;;;;;19.32;49.28;101897.25;6370855;22;20017;-84
2021/05/03 09:53:02;;;;;;;5.00;2.60;;;;;;;19.29;49.70;101889.41;6370625;22;20315;-83
2021/05/03 09:55:48;;;;;;;6.43;2.30;;;;;;;19.32;49.53;101894.63;6373187;22;20006;-87
2021/05/03 09:58:16;;;;;;;3.95;2.17;;;;;;;19.34;49.53;101890.28;6371933;22;20425;-85
2021/05/03 10:01:02;;;;;;;5.60;2.60;;;;;;;19.37;49.33;101892.00;6374116;22;20002;-82
2021/05/03 10:03:36;;;;;;;4.40;2.33;;;;;;;19.38;49.42;101888.53;6382177;22;20081;-82
2021/05/03 10:06:04;;;;;;;4.32;2.42;;;;;;;19.35;49.34;101886.78;6386746;22;20037;-85
2021/05/03 10:08:29;;;;;;;4.75;2.60;;;;;;;19.36;49.62;101888.53;6387593;22;20058;-83
2021/05/03 10:10:58;;;;;;;5.70;2.67;;;;;;;19.36;49.52;101878.09;6381982;22;20330;-85
2021/05/03 10:13:24;;;;;;;3.92;2.70;;;;;;;19.38;49.31;101871.16;6379125;22;19994;-84
2021/05/03 10:15:53;;;;;;;2.90;2.25;;;;;;;19.36;49.21;101880.72;6376983;22;20006;-85
2021/05/03 10:18:19;;;;;;;4.13;2.55;;;;;;;19.35;49.53;101865.91;6374264;22;20044;-84
2021/05/03 10:20:46;;;;;;;4.07;2.45;;;;;;;19.33;49.63;101860.69;6373912;22;19998;-88
2021/05/03 10:23:12;;;;;;;4.30;2.60;;;;;;;19.36;49.53;101869.38;6372927;22;20003;-84
2021/05/03 10:25:38;;;;;;;3.28;2.60;;;;;;;19.31;49.50;101861.56;6371264;22;20021;-85
2021/05/03 10:28:04;;;;;;;3.75;2.40;;;;;;;19.28;49.19;101856.34;6345066;22;20391;-87
2021/05/03 10:30:30;;;;;;;4.03;2.42;;;;;;;19.25;49.36;101854.63;6370863;22;20116;-86
2021/05/03 10:33:09;;;;;;;4.10;2.35;;;;;;;19.26;49.60;101840.69;6372608;22;20081;-87
2021/05/03 10:35:42;;;;;;;4.72;2.50;;;;;;;19.29;49.14;101845.91;6370654;22;19998;-87
2021/05/03 10:38:45;;;;;;;2.78;2.03;;;;;;;19.29;49.42;101853.75;6372387;22;19998;-87
2021/05/03 10:41:22;;;;;;;3.33;2.20;;;;;;;19.30;49.18;101847.66;6373062;22;20440;-88
2021/05/03 10:49:11;;;;;;;4.18;2.13;;;;;;;19.29;49.06;101843.31;6373616;22;20006;-88
2021/05/03 10:57:32;;;;;;;3.10;2.00;;;;;;;19.28;48.67;101840.69;6374607;22;20055;-92
2021/05/03 11:00:01;;;;;;;3.80;2.25;;;;;;;19.29;48.90;101843.31;6371799;22;20009;-92
2021/05/03 11:02:44;;;;;;;5.43;2.33;;;;;;;19.29;49.04;101831.97;6374649;22;19999;-88
2021/05/03 11:08:32;;;;;;;4.60;1.92;;;;;;;19.23;49.13;101826.78;6374870;22;20341;-90
2021/05/03 11:11:06;;;;;;;3.08;1.90;;;;;;;19.24;48.99;101828.50;6374281;22;20002;-90
2021/05/03 11:13:50;;;;;;;4.72;2.22;;;;;;;19.23;48.89;101822.44;6373584;22;20077;-90
2021/05/03 11:16:33;;;;;;;3.63;2.10;;;;;;;19.22;48.78;101828.50;6373715;22;20037;-88
2021/05/03 11:19:21;;;;;;;3.88;2.10;;;;;;;19.23;48.78;101824.19;6373435;22;20002;-89
2021/05/03 11:21:50;;;;;;;4.22;2.17;;;;;;;19.19;48.66;101823.31;6349878;22;20440;-90
2021/05/03 11:24:22;;;;;;;2.47;1.70;;;;;;;19.20;48.64;101827.63;6347510;22;20006;-88
2021/05/03 11:29:32;;;;;;;3.92;1.77;;;;;;;19.22;48.36;101820.69;6378026;22;20013;-87
2021/05/03 11:31:57;;;;;;;4.50;1.63;;;;;;;19.23;48.28;101804.16;6346820;22;20074;-85
2021/05/03 11:34:44;;;;;;;4.10;1.98;;;;;;;19.26;48.41;101811.97;6371025;22;20267;-88
2021/05/03 11:37:13;;;;;;;2.95;1.73;;;;;;;19.25;48.29;101825.03;6370269;22;20385;-90
2021/05/03 11:44:57;;;;;;;4.13;2.17;;;;;;;19.25;46.99;101805.03;6373337;22;20044;-88
2021/05/03 11:47:35;;;;;;;3.88;1.90;;;;;;;19.26;48.23;101803.28;6350818;22;20085;-92
2021/05/03 11:50:01;;;;;;;3.05;1.80;;;;;;;19.24;48.15;101802.41;6370528;22;20003;-93
2021/05/03 11:52:35;;;;;;;3.35;1.70;;;;;;;19.19;47.56;101802.44;6372214;22;20013;-88
2021/05/03 11:55:25;;;;;;;4.65;2.00;;;;;;;19.22;48.47;101797.19;6371675;22;20014;-90
2021/05/03 11:57:51;;;;;;;3.58;1.85;;;;;;;19.23;48.46;101796.34;6365829;22;20006;-91
2021/05/03 12:00:22;;;;;;;3.05;1.65;;;;;;;19.24;48.28;101807.63;6371837;22;20033;-92
2021/05/03 12:03:00;;;;;;;2.55;1.60;;;;;;;19.24;48.27;101792.84;6372342;22;20009;-88
2021/05/03 12:05:25;;;;;;;3.17;1.42;;;;;;;19.23;48.14;101793.72;6370850;22;20404;-91
2021/05/03 12:07:51;;;;;;;4.40;1.75;;;;;;;19.20;47.99;101788.50;6344844;22;20033;-88
2021/05/03 12:10:18;;;;;;;4.05;1.90;;;;;;;19.17;48.10;101780.69;6371493;22;20086;-85
2021/05/03 12:12:47;;;;;;;2.75;1.60;;;;;;;19.19;48.07;101784.16;6374747;22;20066;-85
2021/05/03 12:15:18;;;;;;;2.92;1.58;;;;;;;19.20;48.34;101782.41;6374444;22;20329;-81
2021/05/03 12:17:44;;;;;;;3.47;1.80;;;;;;;19.20;48.21;101780.66;6371668;22;19998;-92
2021/05/03 12:20:12;;;;;;;3.63;1.85;;;;;;;19.21;48.37;101779.81;6370657;22;20006;-88
2021/05/03 12:22:38;;;;;;;4.07;1.70;;;;;;;19.22;48.16;101775.44;6370689;22;20069;-87
2021/05/03 12:25:12;;;;;;;2.72;1.60;;;;;;;19.22;48.50;101762.41;6346747;22;20014;-88
2021/05/03 12:27:38;;;;;;;2.70;1.60;;;;;;;19.22;48.36;101758.06;6378451;22;19999;-85
2021/05/03 12:30:08;;;;;;;3.17;1.55;;;;;;;19.23;48.55;101761.56;6385410;22;20018;-85
2021/05/03 12:32:36;;;;;;;3.22;1.38;;;;;;;19.25;48.57;101758.06;6366707;22;20010;-86
2021/05/03 12:35:13;;;;;;;5.43;1.67;;;;;;;19.25;48.12;101757.16;6379977;22;20003;-82
2021/05/03 12:37:39;;;;;;;3.20;1.95;;;;;;;19.25;48.37;101757.16;6375323;22;20002;-84
2021/05/03 12:40:11;;;;;;;2.25;1.80;;;;;;;19.23;48.17;101741.53;6371783;22;19999;-82
2021/05/03 12:42:45;;;;;;;4.68;2.17;;;;;;;19.21;48.40;101732.84;6370715;22;20002;-81
2021/05/03 12:45:40;;;;;;;;;;;;;;;19.27;48.09;101742.38;6371269;22;20010;-84
2021/05/03 12:51:03;;;;;;;4.18;1.70;;;;;;;19.27;48.32;101732.84;6370336;22;20015;-85
2021/05/03 12:56:11;;;;;;;2.28;1.88;;;;;;;19.29;48.15;101724.97;6374160;22;20409;-84
2021/05/03 12:58:50;;;;;;;3.45;1.77;;;;;;;19.29;48.16;101722.38;6373425;22;19998;-83
2021/05/03 13:01:46;;;;;;;3.22;1.77;;;;;;;19.33;48.13;101726.72;6372668;22;20018;-85
2021/05/03 13:11:20;;;;;;;3.63;2.33;;;;;;;19.32;47.49;101698.88;6375584;22;20086;-87
2021/05/03 13:28:08;;;;;;;22.45;6.85;;;;;;;19.52;52.74;101678.78;6375644;22;20055;-87